Time;durP1;ratioP1;P1;durP2;ratioP2;P2;SDS_P1;SDS_P2;PMS_P1;PMS_P2;Temp;Humidity;BMP_temperature;BMP_pressure;BME280_temperature;BME280_humidity;BME280_pressure;Samples;Min_cycle;Max_cycle;Signal;HPM_P1;HPM_P2
2022/04/24 00:01:45;;;;;;;20.33;12.60;;;3.50;99.90;;;;;;4444532;28;657639;-67
2022/04/24 00:04:32;;;;;;;23.20;13.30;;;3.50;99.90;;;;;;4448703;28;658268;-67
2022/04/24 00:07:21;;;;;;;25.07;14.20;;;3.50;99.90;;;;;;4445335;28;657492;-67
2022/04/24 00:10:10;;;;;;;22.60;12.30;;;3.50;99.90;;;;;;4421578;28;659064;-67
2022/04/24 00:12:57;;;;;;;21.73;12.13;;;3.50;99.90;;;;;;4428843;28;658086;-67
2022/04/24 00:15:44;;;;;;;23.47;11.70;;;3.50;99.90;;;;;;4445453;28;657740;-67
2022/04/24 00:18:31;;;;;;;24.50;12.47;;;3.50;99.90;;;;;;4425208;28;658052;-67
2022/04/24 00:21:19;;;;;;;22.20;12.87;;;3.50;99.90;;;;;;4447848;28;657645;-67
2022/04/24 00:24:08;;;;;;;22.13;11.57;;;3.50;99.90;;;;;;4427457;28;657783;-67
2022/04/24 00:26:55;;;;;;;20.53;11.97;;;3.50;99.90;;;;;;4428918;28;657740;-67
2022/04/24 00:29:43;;;;;;;22.03;12.53;;;3.60;99.90;;;;;;4448121;28;658764;-67
2022/04/24 00:32:30;;;;;;;20.00;12.33;;;3.60;99.90;;;;;;4424639;28;658323;-67
2022/04/24 00:35:17;;;;;;;22.30;12.67;;;3.50;99.90;;;;;;4452369;28;658767;-67
2022/04/24 00:38:05;;;;;;;21.33;11.87;;;3.50;99.90;;;;;;4447984;28;658654;-67
2022/04/24 00:40:54;;;;;;;21.67;12.40;;;3.50;99.90;;;;;;4422706;28;658662;-67
2022/04/24 00:43:41;;;;;;;19.98;12.05;;;3.50;99.90;;;;;;4429227;28;658072;-67
2022/04/24 00:46:39;;;;;;;23.33;13.10;;;3.30;99.90;;;;;;4438038;28;657889;-67
2022/04/24 00:49:27;;;;;;;27.43;13.00;;;3.50;99.90;;;;;;4420587;28;657906;-67
2022/04/24 00:52:14;;;;;;;25.73;12.97;;;3.60;99.90;;;;;;4446526;28;657684;-67
2022/04/24 00:55:01;;;;;;;25.00;14.43;;;3.70;99.90;;;;;;4428298;28;657574;-67
2022/04/24 00:57:50;;;;;;;25.23;12.60;;;3.80;99.90;;;;;;4445571;28;657361;-67
2022/04/24 01:00:38;;;;;;;20.00;12.60;;;3.50;99.90;;;;;;4422281;28;658758;-67
2022/04/24 01:03:25;;;;;;;22.70;12.50;;;3.50;99.90;;;;;;4434434;28;657741;-67
2022/04/24 01:06:13;;;;;;;21.90;13.00;;;3.60;99.90;;;;;;4450675;28;657739;-67
2022/04/24 01:09:09;;;;;;;20.27;12.48;;;3.80;99.90;;;;;;4432823;28;657857;-67
2022/04/24 01:11:57;;;;;;;22.20;12.47;;;4.00;99.90;;;;;;4425887;28;658046;-67
2022/04/24 01:14:45;;;;;;;19.70;11.67;;;4.10;99.90;;;;;;4445218;28;657557;-67
2022/04/24 01:17:32;;;;;;;20.07;11.00;;;4.10;99.90;;;;;;4420898;28;658955;-67
2022/04/24 01:20:22;;;;;;;21.23;12.10;;;4.30;99.90;;;;;;4441068;28;658656;-67
2022/04/24 01:23:09;;;;;;;22.40;12.63;;;4.30;99.90;;;;;;4446784;28;657619;-68
2022/04/24 01:25:57;;;;;;;25.73;14.47;;;4.50;99.90;;;;;;4427302;28;658246;-67
2022/04/24 01:28:44;;;;;;;21.80;12.65;;;4.70;99.90;;;;;;4443770;28;657220;-67
2022/04/24 01:31:31;;;;;;;19.37;11.10;;;4.90;99.90;;;;;;4421303;28;657114;-67
2022/04/24 01:34:19;;;;;;;19.03;11.97;;;5.00;99.90;;;;;;4447441;28;657678;-67
2022/04/24 01:37:08;;;;;;;20.37;12.43;;;5.10;99.90;;;;;;4425741;28;657567;-67
2022/04/24 01:39:55;;;;;;;20.00;12.03;;;5.20;99.90;;;;;;4439974;28;658262;-67
2022/04/24 01:42:42;;;;;;;18.57;11.50;;;5.40;99.90;;;;;;4451180;28;658733;-67
2022/04/24 01:45:30;;;;;;;18.27;11.07;;;5.50;99.90;;;;;;4442052;28;657300;-67
2022/04/24 01:48:17;;;;;;;17.17;11.23;;;5.60;99.90;;;;;;4423944;28;659127;-67
2022/04/24 01:51:04;;;;;;;17.73;11.37;;;5.80;99.90;;;;;;4435531;28;657688;-67
2022/04/24 01:53:53;;;;;;;18.87;11.90;;;5.90;99.90;;;;;;4421344;28;658633;-67
2022/04/24 01:56:40;;;;;;;18.90;11.77;;;6.00;99.90;;;;;;4422228;28;657406;-67
2022/04/24 01:59:27;;;;;;;17.90;11.47;;;6.20;99.90;;;;;;4447087;28;658449;-67
2022/04/24 02:02:15;;;;;;;18.43;11.20;;;6.40;99.90;;;;;;4446747;28;657444;-67
2022/04/24 02:05:02;;;;;;;16.97;10.70;;;6.50;99.90;;;;;;4422499;28;658423;-67
2022/04/24 02:07:49;;;;;;;22.37;11.17;;;6.60;99.90;;;;;;4446027;28;657926;-67
2022/04/24 02:10:37;;;;;;;18.30;11.17;;;6.70;99.90;;;;;;4422834;28;658046;-67
2022/04/24 02:13:25;;;;;;;17.20;11.13;;;6.80;99.90;;;;;;4441250;28;658003;-67
2022/04/24 02:16:12;;;;;;;15.50;10.27;;;6.90;99.90;;;;;;4450403;28;658826;-68
2022/04/24 02:18:59;;;;;;;16.23;10.73;;;6.90;99.90;;;;;;4444189;28;657831;-67
2022/04/24 02:21:47;;;;;;;19.37;9.67;;;7.00;99.90;;;;;;4427323;28;658597;-67
2022/04/24 02:24:34;;;;;;;17.90;10.83;;;7.00;99.90;;;;;;4445517;28;656796;-67
2022/04/24 02:27:22;;;;;;;17.27;10.47;;;7.20;99.90;;;;;;4424729;28;657922;-67
2022/04/24 02:30:10;;;;;;;15.07;10.07;;;7.20;99.90;;;;;;4446288;28;657933;-68
2022/04/24 02:32:58;;;;;;;15.77;9.83;;;7.30;99.90;;;;;;4417722;28;657729;-67
2022/04/24 02:35:45;;;;;;;14.55;8.93;;;7.30;99.90;;;;;;4428280;28;657109;-67
2022/04/24 02:38:32;;;;;;;13.87;9.50;;;7.40;99.90;;;;;;4441924;28;657565;-67
2022/04/24 02:41:20;;;;;;;13.10;9.07;;;7.50;99.90;;;;;;4446204;28;657543;-67
2022/04/24 02:44:09;;;;;;;15.17;9.70;;;7.50;99.90;;;;;;4450659;28;657156;-67
2022/04/24 02:46:56;;;;;;;16.37;9.83;;;7.60;99.90;;;;;;4425401;28;656534;-67
2022/04/24 02:49:43;;;;;;;15.50;10.37;;;7.60;99.90;;;;;;4447559;28;658222;-68
2022/04/24 02:52:30;;;;;;;16.63;10.13;;;7.60;99.90;;;;;;4422742;28;657892;-67
2022/04/24 02:55:18;;;;;;;14.40;9.47;;;7.70;99.90;;;;;;4445672;28;659042;-67
2022/04/24 02:58:05;;;;;;;14.53;9.40;;;7.80;99.90;;;;;;4428762;28;656467;-67
2022/04/24 03:00:55;;;;;;;13.67;9.17;;;7.80;99.90;;;;;;4446639;28;657883;-67
2022/04/24 03:03:42;;;;;;;14.87;9.00;;;7.90;99.90;;;;;;4422337;28;656839;-67
2022/04/24 03:06:29;;;;;;;17.03;9.30;;;7.90;99.90;;;;;;4443332;28;656680;-67
2022/04/24 03:09:17;;;;;;;17.30;10.00;;;7.90;99.90;;;;;;4427568;28;657414;-67
2022/04/24 03:12:04;;;;;;;15.33;9.60;;;7.90;99.90;;;;;;4447556;28;658098;-68
2022/04/24 03:14:51;;;;;;;15.70;9.60;;;7.90;99.90;;;;;;4420165;28;656363;-67
2022/04/24 03:17:40;;;;;;;17.03;10.83;;;7.90;99.90;;;;;;4446183;28;656785;-67
2022/04/24 03:20:28;;;;;;;13.10;9.23;;;7.90;99.90;;;;;;4422281;28;658055;-67
2022/04/24 03:23:15;;;;;;;14.77;9.60;;;7.90;99.90;;;;;;4434329;28;656624;-67
2022/04/24 03:26:02;;;;;;;14.60;9.67;;;7.90;99.90;;;;;;4442123;28;656675;-67
2022/04/24 03:28:49;;;;;;;14.80;9.87;;;8.00;99.90;;;;;;4444688;28;656400;-67
2022/04/24 03:31:37;;;;;;;18.00;10.27;;;8.00;99.90;;;;;;4423232;28;656342;-67
2022/04/24 03:34:26;;;;;;;13.97;9.97;;;8.10;99.90;;;;;;4433996;28;657604;-67
2022/04/24 03:37:13;;;;;;;14.03;10.00;;;8.10;99.90;;;;;;4419219;28;657190;-67
2022/04/24 03:40:00;;;;;;;15.67;10.47;;;8.10;99.90;;;;;;4422162;28;657541;-67
2022/04/24 03:42:48;;;;;;;13.77;10.20;;;8.10;99.90;;;;;;4442597;28;658821;-67
2022/04/24 03:45:35;;;;;;;14.73;10.17;;;8.10;99.90;;;;;;4429152;28;657551;-67
2022/04/24 03:48:22;;;;;;;15.70;9.73;;;8.10;99.90;;;;;;4447227;28;658210;-67
2022/04/24 03:51:12;;;;;;;14.93;9.23;;;8.00;99.90;;;;;;4436687;28;656640;-67
2022/04/24 03:53:59;;;;;;;15.63;9.67;;;8.00;99.90;;;;;;4446044;28;656547;-67
2022/04/24 03:56:46;;;;;;;15.77;9.33;;;8.10;99.90;;;;;;4427775;28;657232;-67
2022/04/24 03:59:33;;;;;;;13.17;9.63;;;8.10;99.90;;;;;;4447961;28;657067;-67
2022/04/24 04:02:20;;;;;;;13.43;9.40;;;8.10;99.90;;;;;;4421501;28;656280;-67
2022/04/24 04:05:08;;;;;;;13.67;9.83;;;8.00;99.90;;;;;;4440163;28;657898;-67
2022/04/24 04:07:57;;;;;;;19.88;12.25;;;8.00;99.90;;;;;;4426398;28;656364;-67
2022/04/24 04:10:44;;;;;;;24.33;13.30;;;8.00;99.90;;;;;;4448225;28;657662;-67
2022/04/24 04:13:31;;;;;;;24.00;13.90;;;8.00;99.90;;;;;;4425055;28;657682;-67
2022/04/24 04:16:18;;;;;;;28.10;14.95;;;8.00;99.90;;;;;;4444767;28;658531;-67
2022/04/24 04:19:05;;;;;;;28.57;15.57;;;8.00;99.90;;;;;;4429291;28;657537;-67
2022/04/24 04:21:52;;;;;;;24.57;15.67;;;8.00;99.90;;;;;;4438954;28;658883;-67
2022/04/24 04:24:42;;;;;;;31.33;17.17;;;7.90;99.90;;;;;;4440824;28;658035;-68
2022/04/24 04:27:29;;;;;;;31.75;18.17;;;7.90;99.90;;;;;;4442806;28;658303;-67
2022/04/24 04:30:16;;;;;;;34.63;19.57;;;7.80;99.90;;;;;;4422445;28;657745;-67
2022/04/24 04:33:04;;;;;;;35.97;20.97;;;7.70;99.90;;;;;;4446534;28;657994;-67
2022/04/24 04:35:51;;;;;;;35.13;21.13;;;7.60;99.90;;;;;;4426589;28;657277;-67
2022/04/24 04:38:38;;;;;;;34.88;20.17;;;7.50;99.90;;;;;;4445200;28;658856;-67
2022/04/24 04:41:27;;;;;;;35.80;18.90;;;7.50;99.90;;;;;;4427786;28;658006;-67
2022/04/24 04:44:14;;;;;;;33.40;20.07;;;7.50;99.90;;;;;;4447506;28;658608;-68
2022/04/24 04:47:01;;;;;;;31.33;18.90;;;7.50;99.90;;;;;;4427801;28;657757;-67
2022/04/24 04:49:48;;;;;;;32.73;20.00;;;7.40;99.90;;;;;;4448041;28;658591;-66
2022/04/24 04:52:35;;;;;;;35.57;20.37;;;7.40;99.90;;;;;;4424303;28;657564;-67
2022/04/24 04:55:23;;;;;;;36.27;21.27;;;7.50;99.90;;;;;;4447673;28;659143;-66
2022/04/24 04:58:11;;;;;;;31.00;19.50;;;7.50;99.90;;;;;;4440041;28;658747;-67
2022/04/24 05:01:00;;;;;;;31.03;18.20;;;7.50;99.90;;;;;;4447505;28;657644;-67
2022/04/24 05:03:47;;;;;;;31.13;18.90;;;7.60;99.90;;;;;;4420585;28;658054;-67
2022/04/24 05:06:37;;;;;;;32.60;17.43;;;7.60;99.90;;;;;;4443357;28;657361;-67
2022/04/24 05:09:24;;;;;;;27.87;17.07;;;7.70;99.90;;;;;;4418689;28;657737;-67
2022/04/24 05:12:11;;;;;;;29.77;17.20;;;7.70;99.90;;;;;;4424376;28;657979;-66
2022/04/24 05:15:03;;;;;;;35.30;17.67;;;7.70;99.90;;;;;;4446675;28;658172;-67
2022/04/24 05:17:52;;;;;;;27.92;17.13;;;7.80;99.90;;;;;;4398958;28;658643;-67
2022/04/24 05:20:39;;;;;;;31.37;17.60;;;7.80;99.90;;;;;;4444690;28;658032;-66
2022/04/24 05:23:26;;;;;;;33.97;19.57;;;7.80;99.90;;;;;;4423499;28;657451;-66
2022/04/24 05:26:14;;;;;;;30.00;18.43;;;7.80;99.90;;;;;;4445822;28;659002;-67
2022/04/24 05:29:01;;;;;;;26.10;17.53;;;7.70;99.90;;;;;;4423855;28;658156;-67
2022/04/24 05:31:49;;;;;;;26.97;16.60;;;7.80;99.90;;;;;;4444449;28;658058;-67
2022/04/24 05:34:37;;;;;;;24.43;16.03;;;7.80;99.90;;;;;;4424354;28;658756;-67
2022/04/24 05:37:25;;;;;;;25.53;15.87;;;7.80;99.90;;;;;;4444282;28;657281;-67
2022/04/24 05:40:13;;;;;;;25.37;15.27;;;7.80;99.90;;;;;;4423678;28;658523;-66
2022/04/24 05:43:00;;;;;;;26.03;15.53;;;7.80;99.90;;;;;;4419598;28;657671;-66
2022/04/24 05:45:47;;;;;;;24.87;15.67;;;7.90;99.90;;;;;;4429906;28;658210;-67
2022/04/24 05:48:37;;;;;;;27.83;16.10;;;7.90;99.90;;;;;;4425154;28;657928;-66
2022/04/24 05:51:24;;;;;;;24.23;16.17;;;7.80;99.90;;;;;;4427183;28;658038;-66
2022/04/24 05:54:11;;;;;;;25.00;16.10;;;7.80;99.90;;;;;;4409534;28;658192;-66
2022/04/24 05:56:58;;;;;;;24.83;16.10;;;7.80;99.90;;;;;;4428900;28;658965;-66
2022/04/24 05:59:46;;;;;;;29.87;17.70;;;7.80;99.90;;;;;;4408001;28;657879;-66
2022/04/24 06:02:33;;;;;;;27.50;16.73;;;7.90;99.90;;;;;;4428984;28;658627;-67
2022/04/24 06:05:22;;;;;;;27.27;16.67;;;7.90;99.90;;;;;;4413840;28;657476;-67
2022/04/24 06:08:09;;;;;;;25.20;15.73;;;7.90;99.90;;;;;;4428487;28;657860;-67
2022/04/24 06:10:56;;;;;;;20.52;13.60;;;7.80;99.90;;;;;;4404560;28;658135;-67
2022/04/24 06:13:45;;;;;;;21.63;13.37;;;7.80;99.90;;;;;;4429344;28;657871;-67
2022/04/24 06:16:32;;;;;;;22.50;12.70;;;7.80;99.90;;;;;;4402013;28;659048;-67
2022/04/24 06:19:19;;;;;;;21.30;13.40;;;7.80;99.90;;;;;;4431723;28;657442;-67
2022/04/24 06:22:08;;;;;;;25.73;14.90;;;7.80;99.90;;;;;;4408454;28;657432;-67
2022/04/24 06:24:55;;;;;;;26.17;14.93;;;7.80;99.90;;;;;;4409821;28;657838;-67
2022/04/24 06:27:42;;;;;;;23.20;14.83;;;7.90;99.90;;;;;;4428303;28;658242;-67
2022/04/24 06:30:31;;;;;;;29.13;16.37;;;7.90;99.90;;;;;;4427397;28;657585;-67
2022/04/24 06:33:18;;;;;;;35.63;19.37;;;8.00;99.90;;;;;;4404892;28;657964;-67
2022/04/24 06:36:06;;;;;;;36.60;19.87;;;8.00;99.90;;;;;;4407539;28;657653;-67
2022/04/24 06:38:54;;;;;;;40.70;21.57;;;8.00;99.90;;;;;;4428460;28;657781;-67
2022/04/24 06:41:41;;;;;;;41.83;22.07;;;8.10;99.90;;;;;;4411120;28;658015;-67
2022/04/24 06:44:28;;;;;;;34.43;19.23;;;8.20;99.90;;;;;;4441053;28;657726;-67
2022/04/24 06:47:16;;;;;;;35.67;19.23;;;8.30;99.90;;;;;;4426464;28;657712;-67
2022/04/24 06:50:03;;;;;;;34.83;17.60;;;8.40;99.90;;;;;;4450132;28;657418;-67
2022/04/24 06:52:58;;;;;;;34.03;18.23;;;8.50;99.90;;;;;;4424074;28;657818;-67
2022/04/24 06:55:47;;;;;;;39.80;21.37;;;8.50;99.90;;;;;;4402824;28;657559;-67
2022/04/24 06:58:35;;;;;;;43.97;19.88;;;8.50;99.90;;;;;;4444054;28;657075;-67
2022/04/24 07:01:23;;;;;;;38.97;20.53;;;8.50;99.90;;;;;;4422575;28;659105;-67
2022/04/24 07:04:11;;;;;;;29.80;17.73;;;8.50;99.90;;;;;;4426291;28;657875;-67
2022/04/24 07:06:58;;;;;;;28.67;16.23;;;8.60;99.90;;;;;;4444011;28;658035;-67
2022/04/24 07:09:45;;;;;;;25.93;15.73;;;8.60;99.90;;;;;;4423049;28;658295;-67
2022/04/24 07:12:43;;;;;;;23.63;14.50;;;8.60;99.90;;;;;;4443483;28;658599;-67
2022/04/24 07:15:32;;;;;;;22.33;14.07;;;8.60;99.90;;;;;;4402395;28;658086;-67
2022/04/24 07:18:19;;;;;;;21.33;12.97;;;8.60;99.90;;;;;;4443313;28;656766;-67
2022/04/24 07:21:07;;;;;;;20.47;12.90;;;8.60;99.90;;;;;;4425387;28;658113;-67
2022/04/24 07:23:54;;;;;;;19.17;12.50;;;8.60;99.90;;;;;;4439364;28;657296;-67
2022/04/24 07:26:41;;;;;;;18.93;12.23;;;8.50;99.90;;;;;;4420925;28;658022;-67
2022/04/24 07:29:30;;;;;;;19.23;12.50;;;8.60;99.90;;;;;;4441679;28;659208;-67
2022/04/24 07:32:17;;;;;;;22.03;13.30;;;8.60;99.90;;;;;;4421385;28;658009;-67
2022/04/24 07:35:04;;;;;;;25.67;16.63;;;8.70;99.90;;;;;;4431930;28;657474;-67
2022/04/24 07:37:52;;;;;;;25.50;16.43;;;8.70;99.90;;;;;;4422233;28;657754;-67
2022/04/24 07:40:40;;;;;;;24.47;16.03;;;8.70;99.90;;;;;;4441087;28;658316;-67
2022/04/24 07:43:27;;;;;;;22.53;15.77;;;8.70;99.90;;;;;;4421966;28;658864;-67
2022/04/24 07:46:16;;;;;;;23.13;14.87;;;8.70;99.90;;;;;;4447405;28;658069;-68
2022/04/24 07:49:03;;;;;;;23.43;15.67;;;8.80;99.90;;;;;;4421966;28;658213;-67
2022/04/24 07:51:50;;;;;;;19.67;13.13;;;8.90;99.90;;;;;;4428236;28;657472;-67
2022/04/24 07:54:37;;;;;;;20.90;12.93;;;8.90;99.90;;;;;;4444168;28;659221;-67
2022/04/24 07:57:25;;;;;;;19.37;12.73;;;9.00;99.90;;;;;;4447678;28;657590;-67
2022/04/24 08:00:13;;;;;;;21.00;13.17;;;9.10;99.90;;;;;;4452382;28;658068;-67
2022/04/24 08:03:03;;;;;;;19.97;12.00;;;9.20;99.90;;;;;;4427269;28;657249;-67
2022/04/24 08:05:51;;;;;;;21.58;12.07;;;9.20;99.90;;;;;;4430608;28;657840;-67
2022/04/24 08:08:38;;;;;;;20.07;11.00;;;9.30;99.90;;;;;;4444852;28;658152;-67
2022/04/24 08:11:25;;;;;;;18.13;10.80;;;9.20;99.90;;;;;;4427329;28;657563;-66
2022/04/24 08:14:12;;;;;;;18.60;11.80;;;9.30;99.90;;;;;;4446801;28;659656;-66
2022/04/24 08:17:00;;;;;;;22.83;12.30;;;9.30;99.90;;;;;;4445049;28;657902;-67
2022/04/24 08:19:49;;;;;;;22.43;12.87;;;9.40;99.90;;;;;;4448287;28;657855;-67
2022/04/24 08:22:40;;;;;;;21.60;10.73;;;9.40;99.90;;;;;;4424072;28;657527;-67
2022/04/24 08:25:28;;;;;;;17.27;10.73;;;9.50;99.90;;;;;;4421041;28;658050;-67
2022/04/24 08:28:15;;;;;;;16.77;11.20;;;9.60;99.90;;;;;;4433442;28;657496;-67
2022/04/24 08:31:02;;;;;;;33.43;18.50;;;9.60;99.90;;;;;;4436820;28;657123;-67
2022/04/24 08:33:50;;;;;;;33.20;18.93;;;9.60;99.90;;;;;;4446683;28;658424;-67
2022/04/24 08:36:39;;;;;;;26.10;14.93;;;9.60;99.90;;;;;;4445545;28;658476;-67
2022/04/24 08:39:28;;;;;;;31.10;15.67;;;9.80;99.90;;;;;;4423028;28;657757;-67
2022/04/24 08:42:18;;;;;;;38.33;18.07;;;9.90;99.90;;;;;;4426948;28;657343;-67
2022/04/24 08:45:07;;;;;;;33.10;17.97;;;10.10;99.90;;;;;;4427980;28;657456;-67
2022/04/24 08:47:54;;;;;;;23.73;13.93;;;10.20;99.90;;;;;;4447421;28;658754;-67
2022/04/24 08:50:42;;;;;;;21.30;13.57;;;10.10;99.90;;;;;;4427111;28;659434;-67
2022/04/24 08:53:31;;;;;;;20.73;12.63;;;10.20;99.90;;;;;;4445789;28;658612;-67
2022/04/24 08:56:18;;;;;;;20.90;13.10;;;10.10;99.90;;;;;;4421790;28;659330;-67
2022/04/24 08:59:05;;;;;;;23.77;14.07;;;10.00;99.90;;;;;;4434700;28;658698;-67
2022/04/24 09:01:52;;;;;;;24.50;14.10;;;10.00;99.90;;;;;;4436882;28;659632;-67
2022/04/24 09:04:40;;;;;;;21.67;14.20;;;10.00;99.90;;;;;;4435140;28;658406;-67
2022/04/24 09:07:31;;;;;;;24.43;14.30;;;9.90;99.90;;;;;;4442448;28;659519;-67
2022/04/24 09:10:20;;;;;;;19.90;11.87;;;10.00;99.90;;;;;;4424287;28;659139;-67
2022/04/24 09:13:07;;;;;;;20.80;12.43;;;9.90;99.90;;;;;;4418023;28;660228;-67
2022/04/24 09:15:55;;;;;;;22.40;13.30;;;9.90;99.90;;;;;;4445805;28;658413;-67
2022/04/24 09:18:42;;;;;;;20.83;13.20;;;9.80;99.90;;;;;;4425467;28;658015;-67
2022/04/24 09:21:29;;;;;;;18.33;12.03;;;9.80;99.90;;;;;;4445549;28;657661;-67
2022/04/24 09:24:17;;;;;;;19.00;11.57;;;9.80;99.90;;;;;;4427924;28;657377;-67
2022/04/24 09:27:06;;;;;;;18.93;11.43;;;9.80;99.90;;;;;;4448912;28;658148;-67
2022/04/24 09:29:55;;;;;;;21.50;11.90;;;9.80;99.90;;;;;;4420760;28;658690;-67
2022/04/24 09:32:47;;;;;;;18.63;11.47;;;9.80;99.90;;;;;;4423301;28;659156;-67
2022/04/24 09:35:36;;;;;;;23.07;12.10;;;9.70;99.90;;;;;;4417618;28;657770;-67
2022/04/24 09:38:23;;;;;;;25.17;13.40;;;9.70;99.90;;;;;;4447089;28;658422;-67
2022/04/24 09:41:17;;;;;;;29.00;15.50;;;9.70;99.90;;;;;;4424243;28;658277;-67
2022/04/24 09:44:14;;;;;;;20.90;12.73;;;9.70;99.90;;;;;;4422613;28;657277;-67
2022/04/24 09:47:01;;;;;;;20.43;11.97;;;9.60;99.90;;;;;;4398096;28;658259;-67
2022/04/24 09:49:50;;;;;;;23.57;15.03;;;9.60;99.90;;;;;;4446871;28;658496;-67
2022/04/24 09:52:37;;;;;;;24.33;13.20;;;9.60;99.90;;;;;;4418887;28;658056;-67
2022/04/24 09:55:25;;;;;;;20.90;12.95;;;9.60;99.90;;;;;;4446178;28;657639;-66
2022/04/24 09:58:13;;;;;;;20.67;13.10;;;9.60;99.90;;;;;;4421587;28;659119;-66
2022/04/24 10:01:02;;;;;;;22.07;13.83;;;9.60;99.90;;;;;;4432601;28;658187;-66
2022/04/24 10:03:50;;;;;;;21.57;13.50;;;9.70;99.90;;;;;;4437074;28;656854;-66
2022/04/24 10:06:40;;;;;;;24.43;14.23;;;9.70;99.90;;;;;;4417749;28;658408;-67
2022/04/24 10:09:27;;;;;;;28.20;14.97;;;9.70;99.90;;;;;;4420858;28;659177;-67
2022/04/24 10:12:16;;;;;;;25.17;15.47;;;9.70;99.90;;;;;;4445880;28;657599;-67
2022/04/24 10:15:05;;;;;;;26.30;15.67;;;9.60;99.90;;;;;;4419993;28;660157;-67
2022/04/24 10:18:24;;;;;;;22.20;15.03;;;9.60;99.90;;;;;;4419409;28;658828;-67
2022/04/24 10:21:23;;;;;;;32.00;18.47;;;9.60;99.90;;;;;;4423386;28;658014;-67
2022/04/24 10:24:11;;;;;;;27.65;16.35;;;9.70;99.90;;;;;;4404699;28;657905;-67
2022/04/24 10:26:58;;;;;;;27.70;16.80;;;9.90;99.90;;;;;;4443570;28;658132;-67
2022/04/24 10:29:52;;;;;;;25.30;15.83;;;10.10;99.90;;;;;;4426242;28;657760;-67
2022/04/24 10:32:39;;;;;;;24.10;15.30;;;10.30;99.90;;;;;;4421377;28;658637;-67
2022/04/24 10:35:27;;;;;;;26.00;16.27;;;10.70;99.90;;;;;;4425220;28;658871;-66
2022/04/24 10:38:17;;;;;;;28.30;17.80;;;11.20;99.90;;;;;;4443192;28;658603;-67
2022/04/24 10:41:05;;;;;;;29.47;16.17;;;11.90;99.90;;;;;;4443689;28;659064;-67
2022/04/24 10:43:57;;;;;;;23.53;14.53;;;12.50;99.90;;;;;;4426762;28;658935;-67
2022/04/24 10:46:47;;;;;;;19.50;11.83;;;12.80;99.90;;;;;;4408794;28;659092;-67
2022/04/24 10:49:35;;;;;;;19.57;11.50;;;12.80;99.90;;;;;;4404805;28;659188;-67
2022/04/24 10:52:23;;;;;;;19.30;12.10;;;12.80;99.90;;;;;;4406962;28;660053;-67
2022/04/24 10:55:12;;;;;;;17.80;11.53;;;12.80;99.90;;;;;;4411100;28;658909;-67
2022/04/24 10:58:02;;;;;;;16.53;10.70;;;12.70;99.90;;;;;;4429770;28;658350;-67
2022/04/24 11:00:49;;;;;;;18.70;11.93;;;12.70;99.90;;;;;;4421025;28;658772;-67
2022/04/24 11:03:40;;;;;;;19.20;11.70;;;12.80;99.90;;;;;;4426430;28;658423;-67
2022/04/24 11:06:27;;;;;;;18.97;11.93;;;13.00;99.90;;;;;;4422506;28;659689;-67
2022/04/24 11:09:16;;;;;;;18.93;11.40;;;13.40;99.90;;;;;;4445452;28;659295;-67
2022/04/24 11:12:05;;;;;;;19.47;11.83;;;14.20;99.90;;;;;;4422440;28;660224;-67
2022/04/24 11:14:53;;;;;;;13.03;9.20;;;14.60;99.90;;;;;;4421155;28;660033;-67
2022/04/24 11:17:40;;;;;;;14.37;8.63;;;14.30;99.90;;;;;;4435851;28;658257;-67
2022/04/24 11:20:31;;;;;;;17.03;10.30;;;14.70;99.90;;;;;;4446681;28;659074;-67
2022/04/24 11:23:18;;;;;;;15.23;9.63;;;15.80;99.90;;;;;;4422233;28;660696;-67
2022/04/24 11:26:09;;;;;;;12.10;8.07;;;16.50;99.90;;;;;;4427884;28;657452;-67
2022/04/24 11:28:57;;;;;;;14.90;8.43;;;16.40;99.90;;;;;;4427087;28;657929;-67
2022/04/24 11:31:51;;;;;;;13.87;9.33;;;16.20;99.90;;;;;;4444167;28;658743;-67
2022/04/24 11:34:38;;;;;;;15.20;9.90;;;16.70;99.90;;;;;;4422469;28;658437;-67
2022/04/24 11:37:25;;;;;;;15.70;9.87;;;17.10;99.90;;;;;;4427021;28;657689;-67
2022/04/24 11:40:13;;;;;;;13.20;9.03;;;17.40;99.90;;;;;;4446574;28;659119;-67
2022/04/24 11:43:05;;;;;;;12.32;8.35;;;17.80;99.90;;;;;;4426639;28;657577;-67
2022/04/24 11:52:02;;;;;;;11.40;7.23;;;18.00;93.80;;;;;;4382876;28;658367;-67
2022/04/24 11:54:51;;;;;;;12.70;7.30;;;17.90;93.90;;;;;;4442659;28;657981;-68
2022/04/24 11:57:38;;;;;;;12.00;7.10;;;19.20;94.00;;;;;;4424135;28;658702;-67
2022/04/24 12:00:35;;;;;;;13.57;7.63;;;17.50;92.50;;;;;;4427082;28;657661;-68
2022/04/24 12:03:22;;;;;;;8.33;6.43;;;18.00;94.10;;;;;;4399605;28;658250;-68
2022/04/24 12:06:11;;;;;;;10.30;7.40;;;17.90;87.50;;;;;;4444060;28;656403;-67
2022/04/24 12:08:58;;;;;;;10.53;7.03;;;16.70;98.90;;;;;;4449564;28;658855;-67
2022/04/24 12:11:45;;;;;;;10.80;7.43;;;16.50;99.90;;;;;;4424400;28;657891;-67
2022/04/24 12:14:33;;;;;;;13.07;8.67;;;16.20;99.90;;;;;;4445732;28;659039;-68
2022/04/24 12:17:22;;;;;;;11.70;8.30;;;15.80;99.90;;;;;;4431986;28;657886;-67
2022/04/24 12:20:10;;;;;;;12.73;8.80;;;15.30;99.90;;;;;;4446352;28;658071;-67
2022/04/24 12:22:57;;;;;;;13.83;8.47;;;14.90;99.90;;;;;;4423592;28;658517;-67
2022/04/24 12:25:48;;;;;;;15.17;9.63;;;14.60;99.90;;;;;;4445617;28;658243;-67
2022/04/24 12:28:39;;;;;;;11.93;7.87;;;14.40;99.90;;;;;;4403251;28;658119;-67
2022/04/24 12:31:27;;;;;;;12.73;7.53;;;14.30;99.90;;;;;;4428498;28;657738;-67
2022/04/24 12:34:16;;;;;;;10.57;6.60;;;14.50;99.90;;;;;;4449076;28;658075;-68
2022/04/24 12:37:03;;;;;;;8.97;6.40;;;14.90;99.90;;;;;;4426186;28;658485;-67
2022/04/24 12:39:53;;;;;;;11.53;6.70;;;15.50;99.90;;;;;;4431092;28;656556;-67
2022/04/24 12:42:41;;;;;;;12.57;6.67;;;16.50;99.90;;;;;;4429702;28;657462;-67
2022/04/24 12:45:29;;;;;;;9.60;5.73;;;16.00;99.90;;;;;;4447664;28;658398;-67
2022/04/24 12:48:16;;;;;;;11.20;5.80;;;15.80;99.90;;;;;;4431124;28;657063;-67
2022/04/24 12:51:04;;;;;;;10.80;6.68;;;15.30;99.90;;;;;;4451021;28;657724;-67
2022/04/24 12:53:52;;;;;;;10.17;6.23;;;15.10;99.90;;;;;;4430299;28;657886;-67
2022/04/24 12:56:41;;;;;;;11.90;7.50;;;14.90;99.90;;;;;;4448827;28;657599;-67
2022/04/24 12:59:28;;;;;;;10.23;5.70;;;14.70;99.90;;;;;;4424590;28;659006;-67
2022/04/24 13:02:16;;;;;;;9.47;5.73;;;14.40;99.90;;;;;;4427031;28;658352;-67
2022/04/24 13:05:03;;;;;;;9.47;6.10;;;14.20;99.90;;;;;;4448680;28;657045;-67
2022/04/24 13:07:52;;;;;;;11.77;6.50;;;14.00;99.90;;;;;;4423645;28;656590;-67
2022/04/24 13:10:39;;;;;;;10.60;7.00;;;13.90;99.90;;;;;;4448517;28;658168;-67
2022/04/24 13:13:28;;;;;;;13.47;7.73;;;13.90;99.90;;;;;;4429391;28;658156;-67
2022/04/24 13:19:20;;;;;;;15.67;8.37;;;13.60;99.90;;;;;;4413785;28;657500;-67
2022/04/24 13:22:07;;;;;;;13.00;7.87;;;13.50;99.90;;;;;;4452657;28;657787;-67
2022/04/24 13:24:57;;;;;;;12.97;7.67;;;13.50;99.90;;;;;;4446681;28;658098;-68
2022/04/24 13:27:44;;;;;;;10.20;6.83;;;13.40;99.90;;;;;;4448118;28;657960;-67
2022/04/24 13:30:31;;;;;;;16.23;9.40;;;13.50;99.90;;;;;;4427646;28;657508;-67
2022/04/24 13:33:18;;;;;;;12.57;8.23;;;13.70;99.90;;;;;;4449980;28;657828;-68
2022/04/24 13:36:06;;;;;;;13.20;7.80;;;14.20;99.90;;;;;;4428517;28;657934;-67
2022/04/24 13:38:53;;;;;;;13.65;8.10;;;14.40;99.90;;;;;;4417512;28;658868;-67
2022/04/24 13:41:42;;;;;;;13.13;7.47;;;14.50;99.90;;;;;;4428278;28;657339;-67
2022/04/24 13:44:29;;;;;;;13.50;7.53;;;14.50;99.90;;;;;;4446549;28;657835;-67
2022/04/24 13:47:20;;;;;;;14.23;7.90;;;14.50;99.90;;;;;;4428936;28;657627;-67
2022/04/24 13:50:07;;;;;;;21.10;10.77;;;14.30;99.90;;;;;;4428871;28;658220;-67
2022/04/24 13:52:55;;;;;;;16.67;9.43;;;14.30;99.90;;;;;;4449331;28;659248;-67
2022/04/24 13:55:43;;;;;;;20.07;11.57;;;14.20;99.90;;;;;;4411009;28;658274;-67
2022/04/24 13:58:32;;;;;;;14.83;9.13;;;14.30;99.90;;;;;;4414294;28;658840;-68
2022/04/24 14:01:20;;;;;;;17.40;9.13;;;14.30;99.90;;;;;;4429611;28;657563;-67
2022/04/24 14:04:07;;;;;;;17.07;10.33;;;14.40;99.90;;;;;;4418632;28;658797;-67
2022/04/24 14:06:54;;;;;;;13.10;8.27;;;14.50;99.90;;;;;;4451152;28;658340;-67
2022/04/24 14:09:42;;;;;;;11.20;6.90;;;14.70;99.90;;;;;;4428481;28;657334;-68
2022/04/24 14:12:29;;;;;;;11.83;6.67;;;15.00;99.90;;;;;;4445286;28;657218;-67
2022/04/24 14:15:22;;;;;;;10.53;6.90;;;15.00;99.90;;;;;;4428415;28;658159;-67
2022/04/24 14:18:10;;;;;;;9.23;5.53;;;15.10;99.90;;;;;;4446521;28;657362;-67
2022/04/24 14:20:57;;;;;;;14.33;5.37;;;15.00;99.90;;;;;;4448915;28;657806;-67
2022/04/24 14:23:44;;;;;;;7.00;4.77;;;14.80;99.90;;;;;;4451751;28;657268;-67